sensor_id;sensor_type;location;lat;lon;timestamp;pressure;altitude;pressure_sealevel;temperature;humidity
818;BME280;391;51.052;6.954;2022-11-03T00:01:49;101167.47;;;11.14;70.26
818;BME280;391;51.052;6.954;2022-11-03T00:03:53;101163.03;;;11.11;70.60
818;BME280;391;51.052;6.954;2022-11-03T00:05:56;101165.63;;;11.10;70.69
818;BME280;391;51.052;6.954;2022-11-03T00:08:09;101165.56;;;11.08;70.96
818;BME280;391;51.052;6.954;2022-11-03T00:10:13;101160.41;;;11.10;71.14
818;BME280;391;51.052;6.954;2022-11-03T00:12:18;101148.97;;;11.06;71.47
818;BME280;391;51.052;6.954;2022-11-03T00:14:21;101132.16;;;10.98;71.31
818;BME280;391;51.052;6.954;2022-11-03T00:16:25;101146.56;;;11.12;71.41
818;BME280;391;51.052;6.954;2022-11-03T00:18:28;101141.38;;;11.14;71.33
818;BME280;391;51.052;6.954;2022-11-03T00:20:32;101143.13;;;11.13;71.28
818;BME280;391;51.052;6.954;2022-11-03T00:22:35;101143.00;;;11.10;72.00
818;BME280;391;51.052;6.954;2022-11-03T00:24:39;101137.94;;;11.15;72.06
818;BME280;391;51.052;6.954;2022-11-03T00:26:42;101142.13;;;11.10;72.01
818;BME280;391;51.052;6.954;2022-11-03T00:28:48;101127.31;;;11.09;71.83
818;BME280;391;51.052;6.954;2022-11-03T00:30:52;101129.19;;;11.13;71.76
818;BME280;391;51.052;6.954;2022-11-03T00:32:57;101124.63;;;11.07;71.98
818;BME280;391;51.052;6.954;2022-11-03T00:35:00;101124.53;;;11.04;72.14
818;BME280;391;51.052;6.954;2022-11-03T00:37:04;101127.03;;;11.01;72.50
818;BME280;391;51.052;6.954;2022-11-03T00:39:07;101122.59;;;10.97;73.00
818;BME280;391;51.052;6.954;2022-11-03T00:41:12;101123.53;;;11.01;72.80
818;BME280;391;51.052;6.954;2022-11-03T00:43:16;101125.31;;;11.02;72.87
818;BME280;391;51.052;6.954;2022-11-03T00:45:20;101107.88;;;11.01;73.09
818;BME280;391;51.052;6.954;2022-11-03T00:47:24;101117.41;;;10.99;72.96
818;BME280;391;51.052;6.954;2022-11-03T00:49:28;101107.94;;;11.02;73.06
818;BME280;391;51.052;6.954;2022-11-03T00:51:32;101107.03;;;11.00;73.23
818;BME280;391;51.052;6.954;2022-11-03T00:53:38;101103.63;;;11.03;73.35
818;BME280;391;51.052;6.954;2022-11-03T00:55:48;101105.06;;;10.95;73.46
818;BME280;391;51.052;6.954;2022-11-03T00:57:51;101107.44;;;10.87;73.82
818;BME280;391;51.052;6.954;2022-11-03T00:59:55;101104.16;;;10.93;73.74
818;BME280;391;51.052;6.954;2022-11-03T01:02:00;101102.38;;;10.92;73.96
818;BME280;391;51.052;6.954;2022-11-03T01:04:03;101089.09;;;10.84;74.37
818;BME280;391;51.052;6.954;2022-11-03T01:06:25;101079.31;;;10.79;74.23
818;BME280;391;51.052;6.954;2022-11-03T01:08:46;101103.44;;;10.97;74.26
818;BME280;391;51.052;6.954;2022-11-03T01:10:49;101095.06;;;11.07;74.29
818;BME280;391;51.052;6.954;2022-11-03T01:13:06;101032.94;;;10.69;73.73
818;BME280;391;51.052;6.954;2022-11-03T01:15:10;101101.75;;;10.99;74.13
818;BME280;391;51.052;6.954;2022-11-03T01:17:17;101069.97;;;10.85;74.56
818;BME280;391;51.052;6.954;2022-11-03T01:19:21;101094.00;;;11.02;74.31
818;BME280;391;51.052;6.954;2022-11-03T01:21:24;101084.06;;;10.90;74.70
818;BME280;391;51.052;6.954;2022-11-03T01:23:28;101084.22;;;10.95;74.93
818;BME280;391;51.052;6.954;2022-11-03T01:25:31;101079.75;;;10.91;75.08
818;BME280;391;51.052;6.954;2022-11-03T01:27:34;101079.75;;;10.91;75.15
818;BME280;391;51.052;6.954;2022-11-03T01:29:38;101075.53;;;10.94;75.69
818;BME280;391;51.052;6.954;2022-11-03T01:31:42;101074.63;;;10.94;75.75
818;BME280;391;51.052;6.954;2022-11-03T01:33:49;101064.19;;;10.94;75.92
818;BME280;391;51.052;6.954;2022-11-03T01:35:52;101058.28;;;10.99;75.95
818;BME280;391;51.052;6.954;2022-11-03T01:37:56;101066.03;;;10.98;75.77
818;BME280;391;51.052;6.954;2022-11-03T01:39:59;101045.97;;;10.95;75.74
818;BME280;391;51.052;6.954;2022-11-03T01:42:02;101060.16;;;11.03;75.75
818;BME280;391;51.052;6.954;2022-11-03T01:44:25;101058.44;;;11.04;76.08
818;BME280;391;51.052;6.954;2022-11-03T01:46:30;101048.00;;;11.04;75.63
818;BME280;391;51.052;6.954;2022-11-03T01:48:34;101044.34;;;10.99;75.67
818;BME280;391;51.052;6.954;2022-11-03T01:50:40;101045.53;;;11.08;75.76
818;BME280;391;51.052;6.954;2022-11-03T01:52:47;101041.19;;;11.09;76.09
818;BME280;391;51.052;6.954;2022-11-03T01:54:57;101037.66;;;11.07;75.98
818;BME280;391;51.052;6.954;2022-11-03T01:57:05;101028.88;;;11.05;76.46
818;BME280;391;51.052;6.954;2022-11-03T01:59:10;101028.19;;;11.10;76.36
818;BME280;391;51.052;6.954;2022-11-03T02:01:14;101017.63;;;11.06;76.60
818;BME280;391;51.052;6.954;2022-11-03T02:03:18;101025.38;;;11.04;76.83
818;BME280;391;51.052;6.954;2022-11-03T02:05:24;101024.47;;;11.02;77.00
818;BME280;391;51.052;6.954;2022-11-03T02:07:33;101021.13;;;11.06;76.73
818;BME280;391;51.052;6.954;2022-11-03T02:09:38;101018.50;;;11.06;76.62
818;BME280;391;51.052;6.954;2022-11-03T02:11:41;101016.69;;;11.04;77.06
818;BME280;391;51.052;6.954;2022-11-03T02:14:02;101016.63;;;11.02;77.05
818;BME280;391;51.052;6.954;2022-11-03T02:16:06;101021.03;;;11.03;77.47
818;BME280;391;51.052;6.954;2022-11-03T02:18:10;101007.13;;;11.04;77.68
818;BME280;391;51.052;6.954;2022-11-03T02:20:16;101004.69;;;11.10;77.11
818;BME280;391;51.052;6.954;2022-11-03T02:22:34;101005.50;;;11.08;77.31
818;BME280;391;51.052;6.954;2022-11-03T02:24:47;100996.66;;;11.03;77.72
818;BME280;391;51.052;6.954;2022-11-03T02:26:56;100988.81;;;11.03;77.66
818;BME280;391;51.052;6.954;2022-11-03T02:29:00;100991.28;;;10.98;77.36
818;BME280;391;51.052;6.954;2022-11-03T02:31:09;100992.44;;;11.08;77.43
818;BME280;391;51.052;6.954;2022-11-03T02:33:22;100998.44;;;11.04;77.73
818;BME280;391;51.052;6.954;2022-11-03T02:35:33;100994.06;;;11.04;78.20
818;BME280;391;51.052;6.954;2022-11-03T02:37:42;100988.84;;;11.04;78.20
818;BME280;391;51.052;6.954;2022-11-03T02:39:52;100986.22;;;11.03;78.17
818;BME280;391;51.052;6.954;2022-11-03T02:42:00;100978.28;;;11.00;78.26
818;BME280;391;51.052;6.954;2022-11-03T02:44:10;100967.84;;;11.00;78.35
818;BME280;391;51.052;6.954;2022-11-03T02:46:14;100971.44;;;11.03;78.25
818;BME280;391;51.052;6.954;2022-11-03T02:48:18;100967.13;;;11.04;78.59
818;BME280;391;51.052;6.954;2022-11-03T02:50:25;100954.06;;;11.04;78.20
818;BME280;391;51.052;6.954;2022-11-03T02:52:35;100941.94;;;11.06;78.65
818;BME280;391;51.052;6.954;2022-11-03T02:54:41;100958.53;;;11.08;78.42
818;BME280;391;51.052;6.954;2022-11-03T02:56:49;100946.38;;;11.08;78.50
818;BME280;391;51.052;6.954;2022-11-03T02:58:58;100950.78;;;11.11;78.56
818;BME280;391;51.052;6.954;2022-11-03T03:01:08;100946.34;;;11.07;78.90
818;BME280;391;51.052;6.954;2022-11-03T03:03:19;100928.81;;;11.03;78.64
818;BME280;391;51.052;6.954;2022-11-03T03:05:28;100939.53;;;11.12;78.63
818;BME280;391;51.052;6.954;2022-11-03T03:07:36;100932.59;;;11.14;78.87
818;BME280;391;51.052;6.954;2022-11-03T03:09:43;100939.59;;;11.15;78.43
818;BME280;391;51.052;6.954;2022-11-03T03:11:50;100930.88;;;11.13;78.88
818;BME280;391;51.052;6.954;2022-11-03T03:13:55;100927.47;;;11.17;78.91
818;BME280;391;51.052;6.954;2022-11-03T03:16:05;100924.84;;;11.15;78.84
818;BME280;391;51.052;6.954;2022-11-03T03:18:19;100927.38;;;11.14;78.95
818;BME280;391;51.052;6.954;2022-11-03T03:20:29;100914.25;;;11.11;79.18
818;BME280;391;51.052;6.954;2022-11-03T03:22:37;100909.91;;;11.10;79.38
818;BME280;391;51.052;6.954;2022-11-03T03:24:47;100891.41;;;11.02;79.72
818;BME280;391;51.052;6.954;2022-11-03T03:26:52;100908.28;;;11.15;79.27
818;BME280;391;51.052;6.954;2022-11-03T03:29:06;100928.47;;;11.21;79.30
818;BME280;391;51.052;6.954;2022-11-03T03:31:13;100920.41;;;11.13;79.34
818;BME280;391;51.052;6.954;2022-11-03T03:33:17;100912.63;;;11.14;79.01
818;BME280;391;51.052;6.954;2022-11-03T03:35:23;100906.44;;;11.11;79.55
818;BME280;391;51.052;6.954;2022-11-03T03:37:29;100912.44;;;11.08;79.89
818;BME280;391;51.052;6.954;2022-11-03T03:39:37;100901.09;;;11.06;79.89
818;BME280;391;51.052;6.954;2022-11-03T03:41:42;100912.44;;;11.08;79.75
818;BME280;391;51.052;6.954;2022-11-03T03:43:47;100909.75;;;11.05;79.84
818;BME280;391;51.052;6.954;2022-11-03T03:45:54;100909.66;;;11.02;80.27
818;BME280;391;51.052;6.954;2022-11-03T03:47:59;100897.34;;;10.98;79.99
818;BME280;391;51.052;6.954;2022-11-03T03:50:03;100884.03;;;10.89;80.11
818;BME280;391;51.052;6.954;2022-11-03T03:52:07;100890.97;;;10.89;80.57
818;BME280;391;51.052;6.954;2022-11-03T03:54:11;100890.94;;;10.87;80.61
818;BME280;391;51.052;6.954;2022-11-03T03:56:15;100886.53;;;10.85;80.80
818;BME280;391;51.052;6.954;2022-11-03T03:58:19;100882.25;;;10.88;80.92
818;BME280;391;51.052;6.954;2022-11-03T04:00:23;100885.75;;;10.89;81.01
818;BME280;391;51.052;6.954;2022-11-03T04:02:28;100887.56;;;10.91;80.88
818;BME280;391;51.052;6.954;2022-11-03T04:04:31;100880.53;;;10.89;80.80
818;BME280;391;51.052;6.954;2022-11-03T04:06:35;100883.03;;;10.84;80.82
818;BME280;391;51.052;6.954;2022-11-03T04:08:38;100878.41;;;10.76;81.07
818;BME280;391;51.052;6.954;2022-11-03T04:10:42;100867.94;;;10.74;80.86
818;BME280;391;51.052;6.954;2022-11-03T04:13:07;100873.00;;;10.70;81.91
818;BME280;391;51.052;6.954;2022-11-03T04:15:29;100845.50;;;10.51;82.14
818;BME280;391;51.052;6.954;2022-11-03T04:17:51;100866.44;;;10.54;82.58
818;BME280;391;51.052;6.954;2022-11-03T04:20:12;100849.16;;;10.56;82.49
818;BME280;391;51.052;6.954;2022-11-03T04:22:33;100844.16;;;10.63;82.40
818;BME280;391;51.052;6.954;2022-11-03T04:24:36;100848.44;;;10.61;82.45
818;BME280;391;51.052;6.954;2022-11-03T04:26:40;100850.00;;;10.56;82.65
818;BME280;391;51.052;6.954;2022-11-03T04:28:44;100851.94;;;10.62;83.14
818;BME280;391;51.052;6.954;2022-11-03T04:30:47;100861.69;;;10.69;82.62
818;BME280;391;51.052;6.954;2022-11-03T04:32:58;100855.66;;;10.70;82.57
818;BME280;391;51.052;6.954;2022-11-03T04:35:09;100853.09;;;10.72;82.48
818;BME280;391;51.052;6.954;2022-11-03T04:37:16;100817.66;;;10.50;82.85
818;BME280;391;51.052;6.954;2022-11-03T04:39:20;100853.09;;;10.72;82.47
818;BME280;391;51.052;6.954;2022-11-03T04:41:24;100844.31;;;10.68;82.93
818;BME280;391;51.052;6.954;2022-11-03T04:43:32;100842.66;;;10.72;82.80
818;BME280;391;51.052;6.954;2022-11-03T04:45:36;100837.53;;;10.75;82.41
818;BME280;391;51.052;6.954;2022-11-03T04:47:40;100837.53;;;10.75;82.16
818;BME280;391;51.052;6.954;2022-11-03T04:49:46;100822.72;;;10.74;82.86
818;BME280;391;51.052;6.954;2022-11-03T04:51:50;100833.31;;;10.78;82.39
818;BME280;391;51.052;6.954;2022-11-03T04:53:58;100836.00;;;10.81;82.57
818;BME280;391;51.052;6.954;2022-11-03T04:56:12;100831.75;;;10.85;82.81
818;BME280;391;51.052;6.954;2022-11-03T04:58:18;100840.63;;;10.91;82.39
818;BME280;391;51.052;6.954;2022-11-03T05:00:22;100842.41;;;10.92;82.54
818;BME280;391;51.052;6.954;2022-11-03T05:02:26;100834.63;;;10.94;82.12
818;BME280;391;51.052;6.954;2022-11-03T05:04:29;100822.41;;;10.93;82.75
818;BME280;391;51.052;6.954;2022-11-03T05:06:34;100824.19;;;10.94;82.04
818;BME280;391;51.052;6.954;2022-11-03T05:08:38;100819.81;;;10.93;82.00
818;BME280;391;51.052;6.954;2022-11-03T05:10:42;100818.81;;;10.88;82.78
818;BME280;391;51.052;6.954;2022-11-03T05:12:46;100805.78;;;10.89;82.32
818;BME280;391;51.052;6.954;2022-11-03T05:14:50;100807.59;;;10.92;82.53
818;BME280;391;51.052;6.954;2022-11-03T05:17:01;100808.56;;;10.95;82.34
818;BME280;391;51.052;6.954;2022-11-03T05:19:09;100795.53;;;10.95;82.11
818;BME280;391;51.052;6.954;2022-11-03T05:21:17;100792.19;;;11.01;82.06
818;BME280;391;51.052;6.954;2022-11-03T05:23:23;100792.97;;;10.97;82.31
818;BME280;391;51.052;6.954;2022-11-03T05:25:34;100771.13;;;10.93;82.29
818;BME280;391;51.052;6.954;2022-11-03T05:27:40;100766.00;;;10.96;82.35
818;BME280;391;51.052;6.954;2022-11-03T05:29:44;100785.34;;;11.04;82.08
818;BME280;391;51.052;6.954;2022-11-03T05:31:50;100783.59;;;11.03;82.16
818;BME280;391;51.052;6.954;2022-11-03T05:33:56;100773.00;;;10.97;82.08
818;BME280;391;51.052;6.954;2022-11-03T05:36:02;100764.88;;;10.87;82.27
818;BME280;391;51.052;6.954;2022-11-03T05:38:11;100766.72;;;10.91;82.38
818;BME280;391;51.052;6.954;2022-11-03T05:40:21;100771.97;;;10.92;82.38
818;BME280;391;51.052;6.954;2022-11-03T05:42:33;100765.91;;;10.93;83.03
818;BME280;391;51.052;6.954;2022-11-03T05:44:39;100768.44;;;10.90;82.68
818;BME280;391;51.052;6.954;2022-11-03T05:46:43;100769.41;;;10.94;82.50
818;BME280;391;51.052;6.954;2022-11-03T05:48:46;100770.47;;;11.00;82.66
818;BME280;391;51.052;6.954;2022-11-03T05:50:50;100766.03;;;10.98;82.48
818;BME280;391;51.052;6.954;2022-11-03T05:52:55;100764.38;;;11.00;82.87
818;BME280;391;51.052;6.954;2022-11-03T05:55:01;100742.13;;;10.83;82.80
818;BME280;391;51.052;6.954;2022-11-03T05:57:09;100763.41;;;10.98;83.27
818;BME280;391;51.052;6.954;2022-11-03T05:59:14;100768.03;;;11.06;82.32
818;BME280;391;51.052;6.954;2022-11-03T06:01:25;100768.91;;;11.07;82.69
818;BME280;391;51.052;6.954;2022-11-03T06:03:34;100761.09;;;11.07;82.56
818;BME280;391;51.052;6.954;2022-11-03T06:05:40;100757.53;;;11.05;82.56
818;BME280;391;51.052;6.954;2022-11-03T06:07:43;100755.00;;;11.08;82.49
818;BME280;391;51.052;6.954;2022-11-03T06:09:47;100743.66;;;11.06;82.71
818;BME280;391;51.052;6.954;2022-11-03T06:11:52;100737.56;;;11.05;82.69
818;BME280;391;51.052;6.954;2022-11-03T06:13:58;100730.63;;;11.07;82.36
818;BME280;391;51.052;6.954;2022-11-03T06:16:03;100735.91;;;11.09;82.89
818;BME280;391;51.052;6.954;2022-11-03T06:18:12;100722.22;;;11.18;82.71
818;BME280;391;51.052;6.954;2022-11-03T06:20:20;100731.69;;;11.14;82.13
818;BME280;391;51.052;6.954;2022-11-03T06:22:25;100725.47;;;11.09;82.49
818;BME280;391;51.052;6.954;2022-11-03T06:24:31;100719.44;;;11.11;82.49
818;BME280;391;51.052;6.954;2022-11-03T06:26:36;100718.56;;;11.11;82.69
818;BME280;391;51.052;6.954;2022-11-03T06:28:39;100687.66;;;10.93;82.79
818;BME280;391;51.052;6.954;2022-11-03T06:30:45;100699.38;;;11.09;82.57
818;BME280;391;51.052;6.954;2022-11-03T06:32:49;100699.31;;;11.06;82.59
818;BME280;391;51.052;6.954;2022-11-03T06:34:54;100679.91;;;10.96;82.64
818;BME280;391;51.052;6.954;2022-11-03T06:37:04;100684.31;;;10.97;82.48
818;BME280;391;51.052;6.954;2022-11-03T06:39:18;100707.22;;;11.10;82.73
818;BME280;391;51.052;6.954;2022-11-03T06:41:24;100694.97;;;11.06;82.96
818;BME280;391;51.052;6.954;2022-11-03T06:43:38;100690.56;;;11.04;83.07
818;BME280;391;51.052;6.954;2022-11-03T06:45:50;100690.66;;;11.08;82.38
818;BME280;391;51.052;6.954;2022-11-03T06:47:54;100664.38;;;11.01;82.71
818;BME280;391;51.052;6.954;2022-11-03T06:49:58;100668.06;;;11.09;82.68
818;BME280;391;51.052;6.954;2022-11-03T06:52:16;100671.66;;;11.12;82.77
818;BME280;391;51.052;6.954;2022-11-03T06:54:23;100668.28;;;11.17;82.64
818;BME280;391;51.052;6.954;2022-11-03T06:56:28;100655.19;;;11.15;82.61
818;BME280;391;51.052;6.954;2022-11-03T06:58:34;100652.72;;;11.21;82.67
818;BME280;391;51.052;6.954;2022-11-03T07:00:39;100656.22;;;11.22;82.60
818;BME280;391;51.052;6.954;2022-11-03T07:03:01;100649.22;;;11.21;82.62
818;BME280;391;51.052;6.954;2022-11-03T07:05:16;100651.00;;;11.23;82.32
818;BME280;391;51.052;6.954;2022-11-03T07:07:22;100660.69;;;11.26;82.35
818;BME280;391;51.052;6.954;2022-11-03T07:09:27;100656.22;;;11.23;82.14
818;BME280;391;51.052;6.954;2022-11-03T07:11:33;100637.88;;;11.19;82.42
818;BME280;391;51.052;6.954;2022-11-03T07:13:37;100651.19;;;11.29;82.28
818;BME280;391;51.052;6.954;2022-11-03T07:15:42;100642.50;;;11.30;82.15
818;BME280;391;51.052;6.954;2022-11-03T07:17:46;100650.53;;;11.38;82.07
818;BME280;391;51.052;6.954;2022-11-03T07:19:51;100655.00;;;11.43;81.57
818;BME280;391;51.052;6.954;2022-11-03T07:21:56;100655.00;;;11.43;81.74
818;BME280;391;51.052;6.954;2022-11-03T07:24:03;100653.34;;;11.45;81.74
818;BME280;391;51.052;6.954;2022-11-03T07:26:07;100647.44;;;11.54;81.26
818;BME280;391;51.052;6.954;2022-11-03T07:28:14;100640.44;;;11.53;81.33
818;BME280;391;51.052;6.954;2022-11-03T07:30:20;100644.06;;;11.59;81.03
818;BME280;391;51.052;6.954;2022-11-03T07:32:28;100637.97;;;11.59;80.93
818;BME280;391;51.052;6.954;2022-11-03T07:34:33;100638.31;;;11.73;80.37
818;BME280;391;51.052;6.954;2022-11-03T07:36:42;100644.50;;;11.78;80.74
818;BME280;391;51.052;6.954;2022-11-03T07:38:48;100642.97;;;11.86;80.66
818;BME280;391;51.052;6.954;2022-11-03T07:40:56;100643.91;;;11.89;80.08
818;BME280;391;51.052;6.954;2022-11-03T07:43:10;100643.78;;;11.83;80.27
818;BME280;391;51.052;6.954;2022-11-03T07:45:36;100634.38;;;11.91;80.60
818;BME280;391;51.052;6.954;2022-11-03T07:47:42;100636.22;;;11.97;80.03
818;BME280;391;51.052;6.954;2022-11-03T07:49:46;100628.31;;;11.94;80.06
818;BME280;391;51.052;6.954;2022-11-03T07:51:51;100612.56;;;11.89;79.68
818;BME280;391;51.052;6.954;2022-11-03T07:54:01;100629.47;;;12.06;79.65
818;BME280;391;51.052;6.954;2022-11-03T07:56:12;100619.25;;;12.17;79.22
818;BME280;391;51.052;6.954;2022-11-03T07:58:21;100619.34;;;12.22;79.24
818;BME280;391;51.052;6.954;2022-11-03T08:00:25;100623.81;;;12.27;79.01
818;BME280;391;51.052;6.954;2022-11-03T08:02:31;100601.66;;;12.08;78.77
818;BME280;391;51.052;6.954;2022-11-03T08:04:35;100611.66;;;12.29;78.92
818;BME280;391;51.052;6.954;2022-11-03T08:06:38;100597.72;;;12.30;78.73
818;BME280;391;51.052;6.954;2022-11-03T08:08:43;100599.38;;;12.25;78.19
818;BME280;391;51.052;6.954;2022-11-03T08:10:47;100616.81;;;12.25;78.35
818;BME280;391;51.052;6.954;2022-11-03T08:12:50;100606.28;;;12.23;78.40
818;BME280;391;51.052;6.954;2022-11-03T08:14:53;100603.78;;;12.29;78.82
818;BME280;391;51.052;6.954;2022-11-03T08:16:57;100604.75;;;12.33;78.12
818;BME280;391;51.052;6.954;2022-11-03T08:19:01;100603.97;;;12.37;78.49
818;BME280;391;51.052;6.954;2022-11-03T08:21:04;100549.34;;;12.05;78.00
818;BME280;391;51.052;6.954;2022-11-03T08:23:11;100601.41;;;12.41;78.03
818;BME280;391;51.052;6.954;2022-11-03T08:25:29;100597.06;;;12.40;78.13
818;BME280;391;51.052;6.954;2022-11-03T08:27:32;100596.19;;;12.41;78.14
818;BME280;391;51.052;6.954;2022-11-03T08:29:35;100583.25;;;12.47;77.79
818;BME280;391;51.052;6.954;2022-11-03T08:31:39;100573.59;;;12.43;78.05
818;BME280;391;51.052;6.954;2022-11-03T08:33:44;100571.06;;;12.49;77.91
818;BME280;391;51.052;6.954;2022-11-03T08:35:47;100567.63;;;12.50;77.84
818;BME280;391;51.052;6.954;2022-11-03T08:37:51;100570.34;;;12.56;77.66
818;BME280;391;51.052;6.954;2022-11-03T08:39:54;100570.34;;;12.56;77.60
818;BME280;391;51.052;6.954;2022-11-03T08:41:59;100562.50;;;12.58;77.80
818;BME280;391;51.052;6.954;2022-11-03T08:44:02;100557.16;;;12.52;77.37
818;BME280;391;51.052;6.954;2022-11-03T08:46:06;100554.59;;;12.55;77.74
818;BME280;391;51.052;6.954;2022-11-03T08:48:19;100554.88;;;12.70;77.47
818;BME280;391;51.052;6.954;2022-11-03T08:50:23;100547.13;;;12.74;77.41
818;BME280;391;51.052;6.954;2022-11-03T08:52:26;100541.84;;;12.71;77.25
818;BME280;391;51.052;6.954;2022-11-03T08:54:30;100542.78;;;12.77;77.03
818;BME280;391;51.052;6.954;2022-11-03T08:56:33;100530.56;;;12.76;77.12
818;BME280;391;51.052;6.954;2022-11-03T08:58:38;100526.38;;;12.87;76.84
818;BME280;391;51.052;6.954;2022-11-03T09:00:41;100527.34;;;12.92;76.56
818;BME280;391;51.052;6.954;2022-11-03T09:02:45;100516.78;;;12.87;76.26
818;BME280;391;51.052;6.954;2022-11-03T09:04:49;100515.25;;;12.98;76.19
818;BME280;391;51.052;6.954;2022-11-03T09:06:52;100518.03;;;13.09;76.14
818;BME280;391;51.052;6.954;2022-11-03T09:08:55;100528.69;;;13.21;75.49
818;BME280;391;51.052;6.954;2022-11-03T09:11:19;100529.56;;;13.20;75.48
818;BME280;391;51.052;6.954;2022-11-03T09:13:22;100516.44;;;13.17;75.01
818;BME280;391;51.052;6.954;2022-11-03T09:15:27;100515.56;;;13.18;74.86
818;BME280;391;51.052;6.954;2022-11-03T09:17:31;100512.97;;;13.19;74.82
818;BME280;391;51.052;6.954;2022-11-03T09:19:35;100497.25;;;13.19;74.48
818;BME280;391;51.052;6.954;2022-11-03T09:21:40;100506.09;;;13.26;74.71
818;BME280;391;51.052;6.954;2022-11-03T09:23:44;100500.88;;;13.31;74.54
818;BME280;391;51.052;6.954;2022-11-03T09:25:47;100498.31;;;13.32;74.18
818;BME280;391;51.052;6.954;2022-11-03T09:27:50;100486.09;;;13.34;74.31
818;BME280;391;51.052;6.954;2022-11-03T09:29:54;100477.41;;;13.35;73.72
818;BME280;391;51.052;6.954;2022-11-03T09:32:15;100476.56;;;13.38;73.41
818;BME280;391;51.052;6.954;2022-11-03T09:34:24;100460.88;;;13.39;73.89
818;BME280;391;51.052;6.954;2022-11-03T09:36:28;100455.69;;;13.42;73.71
818;BME280;391;51.052;6.954;2022-11-03T09:38:31;100450.47;;;13.47;73.93
818;BME280;391;51.052;6.954;2022-11-03T09:40:34;100448.75;;;13.47;73.06
818;BME280;391;51.052;6.954;2022-11-03T09:42:38;100424.19;;;13.36;73.40
818;BME280;391;51.052;6.954;2022-11-03T09:44:42;100444.47;;;13.54;72.88
818;BME280;391;51.052;6.954;2022-11-03T09:46:47;100436.56;;;13.49;72.75
818;BME280;391;51.052;6.954;2022-11-03T09:49:01;100445.38;;;13.57;72.83
818;BME280;391;51.052;6.954;2022-11-03T09:51:08;100418.06;;;13.37;72.52
818;BME280;391;51.052;6.954;2022-11-03T09:53:12;100425.22;;;13.50;72.65
818;BME280;391;51.052;6.954;2022-11-03T09:55:18;100429.63;;;13.53;72.63
818;BME280;391;51.052;6.954;2022-11-03T09:57:25;100421.75;;;13.51;72.30
818;BME280;391;51.052;6.954;2022-11-03T09:59:29;100408.53;;;13.42;72.63
818;BME280;391;51.052;6.954;2022-11-03T10:01:33;100410.34;;;13.48;72.23
818;BME280;391;51.052;6.954;2022-11-03T10:03:36;100398.94;;;13.43;72.46
818;BME280;391;51.052;6.954;2022-11-03T10:05:43;100389.28;;;13.39;72.25
818;BME280;391;51.052;6.954;2022-11-03T10:07:47;100380.66;;;13.47;72.34
818;BME280;391;51.052;6.954;2022-11-03T10:09:52;100378.97;;;13.52;72.42
818;BME280;391;51.052;6.954;2022-11-03T10:11:56;100373.78;;;13.57;71.87
818;BME280;391;51.052;6.954;2022-11-03T10:14:00;100359.78;;;13.56;71.62
818;BME280;391;51.052;6.954;2022-11-03T10:16:05;100354.69;;;13.65;72.31
818;BME280;391;51.052;6.954;2022-11-03T10:18:09;100348.63;;;13.75;72.00
818;BME280;391;51.052;6.954;2022-11-03T10:20:14;100349.63;;;13.88;71.60
818;BME280;391;51.052;6.954;2022-11-03T10:22:20;100372.41;;;13.94;71.59
818;BME280;391;51.052;6.954;2022-11-03T10:24:24;100361.97;;;13.97;71.23
818;BME280;391;51.052;6.954;2022-11-03T10:26:27;100340.09;;;13.93;71.42
818;BME280;391;51.052;6.954;2022-11-03T10:28:37;100350.72;;;14.11;71.54
818;BME280;391;51.052;6.954;2022-11-03T10:30:52;100349.84;;;14.14;71.44
818;BME280;391;51.052;6.954;2022-11-03T10:33:24;100344.66;;;14.18;70.95
818;BME280;391;51.052;6.954;2022-11-03T10:35:32;100335.06;;;14.22;70.97
818;BME280;391;51.052;6.954;2022-11-03T10:37:37;100335.91;;;14.15;70.95
818;BME280;391;51.052;6.954;2022-11-03T10:39:41;100317.50;;;14.10;71.35
818;BME280;391;51.052;6.954;2022-11-03T10:41:54;100307.03;;;14.12;71.47
818;BME280;391;51.052;6.954;2022-11-03T10:44:00;100301.78;;;14.09;71.25
818;BME280;391;51.052;6.954;2022-11-03T10:46:13;100286.91;;;14.09;71.36
818;BME280;391;51.052;6.954;2022-11-03T10:48:37;100282.56;;;14.11;71.60
818;BME280;391;51.052;6.954;2022-11-03T10:50:41;100286.00;;;14.07;70.65
818;BME280;391;51.052;6.954;2022-11-03T10:52:46;100289.47;;;14.02;70.84
818;BME280;391;51.052;6.954;2022-11-03T10:54:50;100285.06;;;13.93;71.12
818;BME280;391;51.052;6.954;2022-11-03T10:56:54;100258.72;;;13.79;71.10
818;BME280;391;51.052;6.954;2022-11-03T10:58:59;100267.56;;;13.91;70.96
818;BME280;391;51.052;6.954;2022-11-03T11:01:03;100261.38;;;13.86;70.79
818;BME280;391;51.052;6.954;2022-11-03T11:03:10;100239.53;;;13.85;70.85
818;BME280;391;51.052;6.954;2022-11-03T11:05:22;100215.91;;;13.76;71.09
818;BME280;391;51.052;6.954;2022-11-03T11:07:33;100228.19;;;13.83;70.77
818;BME280;391;51.052;6.954;2022-11-03T11:09:38;100221.19;;;13.84;71.17
818;BME280;391;51.052;6.954;2022-11-03T11:11:58;100231.69;;;13.85;70.79
818;BME280;391;51.052;6.954;2022-11-03T11:14:20;100247.34;;;13.79;70.79
818;BME280;391;51.052;6.954;2022-11-03T11:16:48;100216.63;;;13.55;70.83
818;BME280;391;51.052;6.954;2022-11-03T11:19:02;100256.97;;;13.82;71.07
818;BME280;391;51.052;6.954;2022-11-03T11:23:44;100239.53;;;13.81;70.64
818;BME280;391;51.052;6.954;2022-11-03T11:26:13;100257.06;;;13.88;70.82
818;BME280;391;51.052;6.954;2022-11-03T11:28:17;100250.06;;;13.91;70.78
818;BME280;391;51.052;6.954;2022-11-03T11:33:12;100252.75;;;13.97;70.79
818;BME280;391;51.052;6.954;2022-11-03T11:41:06;100243.13;;;13.98;69.91
818;BME280;391;51.052;6.954;2022-11-03T11:43:27;100237.03;;;13.94;70.40
818;BME280;391;51.052;6.954;2022-11-03T11:48:15;100208.97;;;13.86;70.04
818;BME280;391;51.052;6.954;2022-11-03T11:50:27;100212.53;;;13.92;69.66
818;BME280;391;51.052;6.954;2022-11-03T11:52:39;100193.28;;;13.92;69.57
818;BME280;391;51.052;6.954;2022-11-03T11:54:43;100200.31;;;13.96;69.54